Time;durP1;ratioP1;P1;durP2;ratioP2;P2;SDS_P1;SDS_P2;PMS_P1;PMS_P2;Temp;Humidity;BMP_temperature;BMP_pressure;BME280_temperature;BME280_humidity;BME280_pressure;Samples;Min_cycle;Max_cycle;Signal;HPM_P1;HPM_P2
2021/12/26 01:21:43;;;;;;;16.08;11.50;;;;;;;-5.17;69.66;98186.75;6174951;23;20028;-88
2021/12/26 01:24:13;;;;;;;17.38;11.20;;;;;;;-4.45;69.15;98287.25;6183801;23;20096;-89
2021/12/26 01:26:40;;;;;;;16.02;11.40;;;;;;;-5.18;69.23;98166.94;6184134;23;20043;-89
2021/12/26 01:29:09;;;;;;;15.43;10.93;;;;;;;-4.62;69.17;98253.47;6178870;23;20488;-89
2021/12/26 01:31:35;;;;;;;17.63;12.05;;;;;;;-4.56;68.80;98278.00;6155471;23;20012;-89
2021/12/26 01:34:06;;;;;;;14.60;9.60;;;;;;;-5.13;68.85;98162.06;6153822;23;19997;-89
2021/12/26 01:36:35;;;;;;;16.05;10.02;;;;;;;-5.15;68.46;98157.00;6154599;23;20005;-88
2021/12/26 01:39:08;;;;;;;13.27;9.50;;;;;;;-5.23;68.66;98151.84;6155177;23;20025;-88
2021/12/26 01:41:39;;;;;;;14.73;9.85;;;;;;;-4.00;69.15;98349.97;6154045;23;20005;-87
2021/12/26 01:44:05;;;;;;;13.82;8.40;;;;;;;-4.46;69.06;98275.22;6153478;23;20005;-88
2021/12/26 01:46:32;;;;;;;14.23;8.63;;;;;;;-4.53;68.43;98269.06;6153814;23;20105;-88
2021/12/26 01:49:15;;;;;;;14.20;9.55;;;;;;;-5.18;68.56;98161.75;6153078;23;20013;-88
2021/12/26 01:51:45;;;;;;;15.30;7.85;;;;;;;-4.97;69.37;98188.03;6153155;23;20010;-87
2021/12/26 01:54:15;;;;;;;11.50;7.78;;;;;;;-4.52;68.72;98273.31;6153742;23;20080;-88
2021/12/26 01:56:43;;;;;;;10.00;8.45;;;;;;;-5.34;68.91;98150.41;6153969;23;20017;-88
2021/12/26 01:59:14;;;;;;;13.45;8.07;;;;;;;-5.24;68.37;98152.81;6153362;23;20006;-88
2021/12/26 02:01:47;;;;;;;10.52;6.70;;;;;;;-4.95;69.08;98207.69;6153177;23;20009;-88
2021/12/26 02:04:13;;;;;;;10.38;7.53;;;;;;;-4.42;68.95;98294.75;6153650;23;20033;-88
2021/12/26 02:06:38;;;;;;;9.25;7.25;;;;;;;-5.38;68.81;98128.31;6155113;23;20037;-87
2021/12/26 02:09:04;;;;;;;12.32;7.13;;;;;;;-5.31;69.08;98147.44;6153315;23;20012;-88
2021/12/26 02:11:30;;;;;;;10.73;7.32;;;;;;;-5.42;68.89;98119.19;6153441;23;20502;-88
2021/12/26 02:13:58;;;;;;;10.50;6.43;;;;;;;-5.33;69.04;98140.81;6153788;23;20016;-87
2021/12/26 02:16:24;;;;;;;11.35;7.25;;;;;;;-5.31;69.36;98128.47;6178315;23;20343;-88
2021/12/26 02:18:49;;;;;;;8.70;6.40;;;;;;;-5.26;68.83;98125.38;6154840;23;20088;-87
2021/12/26 02:21:40;;;;;;;8.55;6.47;;;;;;;-4.39;69.16;98278.78;6153594;23;20052;-88
2021/12/26 02:24:20;;;;;;;10.30;6.40;;;;;;;-5.26;69.42;98123.56;6153477;23;20009;-88
2021/12/26 02:29:33;;;;;;;10.80;7.13;;;;;;;-4.53;68.80;98243.03;6154833;23;20084;-88
2021/12/26 02:31:59;;;;;;;9.25;6.50;;;;;;;-5.34;69.19;98116.59;6152861;23;20428;-88
2021/12/26 02:34:24;;;;;;;16.05;7.15;;;;;;;-4.66;68.73;98220.97;6153360;23;20002;-88
2021/12/26 02:36:53;;;;;;;13.43;6.65;;;;;;;-5.15;69.36;98151.03;6153097;23;20372;-88
2021/12/26 02:39:21;;;;;;;10.05;6.72;;;;;;;-5.06;68.55;98165.59;6153189;23;20009;-88
2021/12/26 02:41:49;;;;;;;8.68;6.30;;;;;;;-5.29;68.87;98134.31;6153152;23;20005;-88
2021/12/26 02:44:20;;;;;;;12.05;6.32;;;;;;;-4.76;68.65;98220.31;6178385;23;20006;-88
2021/12/26 02:46:48;;;;;;;12.43;6.53;;;;;;;-4.85;69.08;98184.09;6154769;23;20001;-88
2021/12/26 02:49:17;;;;;;;8.40;7.25;;;;;;;-5.25;69.19;98132.19;6153215;23;20012;-88
2021/12/26 02:51:43;;;;;;;10.05;6.93;;;;;;;-4.66;69.16;98213.16;6153366;23;20005;-88
2021/12/26 02:54:17;;;;;;;10.32;6.20;;;;;;;-5.42;68.89;98108.03;6129171;23;20458;-88
2021/12/26 02:56:48;;;;;;;9.07;5.70;;;;;;;-5.21;69.00;98152.47;6153444;23;20002;-87
2021/12/26 02:59:14;;;;;;;9.98;6.43;;;;;;;-4.64;69.69;98218.16;6177858;23;20006;-88
2021/12/26 03:01:39;;;;;;;9.60;5.95;;;;;;;-5.08;69.30;98155.38;6153264;23;20619;-88
2021/12/26 03:04:09;;;;;;;10.38;6.32;;;;;;;-4.64;69.23;98219.00;6153283;23;20432;-88
2021/12/26 03:06:55;;;;;;;10.23;6.22;;;;;;;-4.59;69.04;98226.31;6151807;23;20009;-88
2021/12/26 03:09:23;;;;;;;8.30;6.03;;;;;;;-4.59;69.30;98232.28;6153290;23;20006;-88
2021/12/26 03:11:49;;;;;;;10.90;6.60;;;;;;;-5.31;68.92;98128.47;6177935;23;20324;-88
2021/12/26 03:14:18;;;;;;;10.20;6.68;;;;;;;-5.27;68.52;98131.53;6153308;23;20021;-87
2021/12/26 03:16:51;;;;;;;10.02;6.32;;;;;;;-5.46;69.04;98128.31;6153041;23;20009;-88
2021/12/26 03:19:24;;;;;;;9.13;6.00;;;;;;;-4.65;68.69;98238.19;6153373;23;20384;-87
2021/12/26 03:21:53;;;;;;;8.88;6.38;;;;;;;-4.72;68.99;98236.44;6153235;23;20014;-88
2021/12/26 03:24:21;;;;;;;12.27;6.90;;;;;;;-5.32;69.27;98137.22;6177727;23;20002;-87
2021/12/26 03:26:46;;;;;;;9.20;6.72;;;;;;;-5.60;68.67;98095.22;6152680;23;20056;-88
2021/12/26 03:29:17;;;;;;;11.00;7.25;;;;;;;-4.52;69.12;98260.28;6152002;23;20041;-87
2021/12/26 03:31:43;;;;;;;9.40;6.40;;;;;;;-4.62;68.58;98235.25;6153062;23;20389;-88
2021/12/26 03:34:11;;;;;;;9.23;7.13;;;;;;;-5.19;69.06;98165.31;6178103;23;20068;-88
2021/12/26 03:36:37;;;;;;;7.70;5.82;;;;;;;-4.75;68.68;98215.94;6153403;23;20344;-88
2021/12/26 03:39:05;;;;;;;11.18;6.68;;;;;;;-5.37;68.91;98124.72;6151412;23;20005;-88
2021/12/26 03:41:31;;;;;;;8.48;6.38;;;;;;;-5.57;68.74;98073.28;6153436;23;20059;-88
2021/12/26 03:43:59;;;;;;;11.52;6.47;;;;;;;-5.37;68.52;98113.50;6152829;23;20387;-88
2021/12/26 03:46:33;;;;;;;10.13;6.28;;;;;;;-5.54;68.98;98109.31;6153209;23;20131;-88
2021/12/26 03:49:03;;;;;;;9.55;6.97;;;;;;;-4.64;68.66;98239.81;6178747;23;20006;-88
2021/12/26 03:51:34;;;;;;;11.05;7.07;;;;;;;-5.51;68.83;98102.03;6154608;23;20001;-88
2021/12/26 03:54:01;;;;;;;12.23;7.07;;;;;;;-5.70;68.86;98075.59;6155048;23;20051;-88
2021/12/26 03:56:31;;;;;;;9.32;6.50;;;;;;;-4.64;68.59;98250.22;6155127;23;20060;-88
2021/12/26 03:59:02;;;;;;;9.30;5.97;;;;;;;-4.98;69.19;98210.63;6156134;23;20081;-88
2021/12/26 04:01:30;;;;;;;13.35;7.30;;;;;;;-5.51;68.94;98107.22;6154982;23;20368;-88
2021/12/26 04:04:08;;;;;;;9.27;6.78;;;;;;;-5.54;68.88;98099.75;6156269;23;20001;-88
2021/12/26 04:06:34;;;;;;;8.75;6.63;;;;;;;-4.70;68.78;98242.28;6155132;23;20038;-88
2021/12/26 04:09:00;;;;;;;9.30;6.55;;;;;;;-4.87;68.80;98209.47;6154402;23;20376;-88
2021/12/26 04:11:30;;;;;;;10.35;7.70;;;;;;;-5.06;68.80;98176.00;6154824;23;20009;-88
2021/12/26 04:13:58;;;;;;;7.68;6.82;;;;;;;-4.72;69.10;98252.03;6154650;23;20341;-88
2021/12/26 04:16:31;;;;;;;12.20;6.57;;;;;;;-5.54;68.14;98098.94;6179468;23;19997;-88
2021/12/26 04:18:57;;;;;;;10.88;6.75;;;;;;;-5.47;68.58;98120.69;6130332;23;20484;-88
2021/12/26 04:21:33;;;;;;;11.63;7.22;;;;;;;-5.47;68.96;98118.09;6154584;23;20013;-88
2021/12/26 04:24:02;;;;;;;9.85;6.75;;;;;;;-4.76;68.89;98235.16;6154641;23;20016;-88
2021/12/26 04:26:34;;;;;;;11.50;7.32;;;;;;;-4.78;68.91;98221.47;6154435;23;20009;-88
2021/12/26 04:29:03;;;;;;;12.50;7.55;;;;;;;-5.53;69.33;98110.97;6155898;23;20006;-88
2021/12/26 04:31:31;;;;;;;10.23;6.80;;;;;;;-5.02;69.03;98188.50;6154020;23;20016;-88
2021/12/26 04:33:57;;;;;;;11.32;7.45;;;;;;;-5.37;69.33;98142.94;6178719;23;20313;-87
2021/12/26 04:36:30;;;;;;;8.98;6.72;;;;;;;-4.82;69.29;98236.59;6154426;23;20068;-88
2021/12/26 04:39:08;;;;;;;9.65;6.95;;;;;;;-5.25;68.83;98146.00;6179127;23;20001;-87
2021/12/26 04:41:36;;;;;;;9.57;6.32;;;;;;;-4.86;68.72;98208.47;6179639;23;20048;-88
2021/12/26 04:44:04;;;;;;;10.50;6.57;;;;;;;-4.80;69.24;98226.03;6154182;23;20005;-88
2021/12/26 04:46:30;;;;;;;11.88;8.02;;;;;;;-5.57;69.00;98107.88;6154519;23;20340;-88
2021/12/26 04:48:58;;;;;;;8.60;6.88;;;;;;;-4.95;68.75;98219.88;6154317;23;20005;-88
2021/12/26 04:51:26;;;;;;;13.55;7.72;;;;;;;-4.93;68.53;98205.72;6179317;23;20009;-88
2021/12/26 04:53:52;;;;;;;8.55;7.35;;;;;;;-5.05;68.79;98201.06;6155880;23;19997;-88
2021/12/26 04:56:20;;;;;;;14.50;7.55;;;;;;;-5.43;68.67;98127.19;6154856;23;20336;-88
2021/12/26 04:58:46;;;;;;;14.45;8.35;;;;;;;-4.92;68.57;98214.34;6154526;23;20006;-88
2021/12/26 05:01:11;;;;;;;13.48;7.85;;;;;;;-4.83;68.77;98222.00;6154037;23;20024;-88
2021/12/26 05:03:41;;;;;;;17.60;8.63;;;;;;;-5.14;68.77;98183.84;6154677;23;20004;-88
2021/12/26 05:06:07;;;;;;;12.57;7.63;;;;;;;-5.67;69.11;98096.84;6153005;23;20009;-88
2021/12/26 05:08:38;;;;;;;13.40;7.95;;;;;;;-4.87;69.29;98225.88;6153700;23;20009;-88
2021/12/26 05:11:04;;;;;;;11.60;7.10;;;;;;;-5.59;68.82;98111.63;6154074;23;20002;-88
2021/12/26 05:13:32;;;;;;;12.50;8.38;;;;;;;-5.40;68.68;98145.88;6154057;23;20008;-88
2021/12/26 05:16:02;;;;;;;14.68;7.90;;;;;;;-5.72;69.32;98100.94;6155115;23;20017;-88
2021/12/26 05:18:33;;;;;;;11.93;8.27;;;;;;;-5.00;69.47;98202.16;6154286;23;20010;-88
2021/12/26 05:20:58;;;;;;;10.73;7.45;;;;;;;-5.32;68.62;98155.44;6154039;23;20036;-88
2021/12/26 05:23:27;;;;;;;13.23;8.48;;;;;;;-4.94;69.16;98211.13;6129025;23;20436;-88
2021/12/26 05:25:52;;;;;;;13.27;8.85;;;;;;;-5.70;69.14;98094.56;6154007;23;20006;-88
2021/12/26 05:28:28;;;;;;;13.95;8.98;;;;;;;-5.42;69.32;98141.81;6153631;23;20020;-88
2021/12/26 05:30:53;;;;;;;12.70;8.57;;;;;;;-5.35;69.11;98145.34;6154066;23;20436;-88
2021/12/26 05:33:19;;;;;;;12.00;8.05;;;;;;;-5.65;69.49;98099.28;6154054;23;20004;-88
2021/12/26 05:35:48;;;;;;;12.27;8.20;;;;;;;-5.66;69.56;98100.25;6178855;23;20013;-88
2021/12/26 05:38:13;;;;;;;13.25;8.63;;;;;;;-5.71;69.35;98094.75;6153179;23;20344;-88
2021/12/26 05:40:44;;;;;;;13.10;8.65;;;;;;;-5.84;69.40;98076.28;6154246;23;20016;-88
2021/12/26 05:43:10;;;;;;;15.68;8.70;;;;;;;-4.93;69.62;98210.94;6154030;23;20001;-88
2021/12/26 05:45:35;;;;;;;11.07;8.10;;;;;;;-5.79;68.80;98086.97;6153947;23;20059;-88
2021/12/26 05:48:04;;;;;;;11.57;8.15;;;;;;;-5.63;69.07;98110.31;6153467;23;20033;-88
2021/12/26 05:50:30;;;;;;;14.75;8.25;;;;;;;-5.28;69.23;98164.53;6153565;23;20012;-88
2021/12/26 05:52:55;;;;;;;12.50;8.55;;;;;;;-5.20;69.06;98177.53;6153790;23;20033;-88
2021/12/26 05:55:21;;;;;;;10.95;8.18;;;;;;;-5.86;69.19;98073.03;6153819;23;20002;-88
2021/12/26 05:57:49;;;;;;;12.98;9.10;;;;;;;-5.62;69.16;98123.16;6153442;23;20040;-88
2021/12/26 06:00:23;;;;;;;11.95;8.15;;;;;;;-5.85;68.68;98070.25;6153652;23;20080;-88
2021/12/26 06:02:50;;;;;;;12.35;8.30;;;;;;;-5.68;68.78;98076.22;6154208;23;20013;-88
2021/12/26 06:05:20;;;;;;;12.13;8.30;;;;;;;-4.81;68.90;98225.22;6153481;23;20006;-88
2021/12/26 06:07:51;;;;;;;14.65;9.38;;;;;;;-5.53;69.38;98105.75;6153357;23;20005;-88
2021/12/26 06:10:19;;;;;;;11.05;8.23;;;;;;;-5.58;69.32;98102.84;6153512;23;20432;-88
2021/12/26 06:12:44;;;;;;;12.30;7.95;;;;;;;-4.94;69.55;98204.13;6153236;23;20502;-87
2021/12/26 06:15:13;;;;;;;13.43;8.88;;;;;;;-5.60;69.31;98099.59;6153862;23;20001;-88
2021/12/26 06:17:39;;;;;;;11.60;7.85;;;;;;;-4.90;69.55;98192.41;6129434;23;20009;-87
2021/12/26 06:20:11;;;;;;;12.77;8.43;;;;;;;-5.73;68.80;98070.72;6153273;23;20425;-87
2021/12/26 06:22:39;;;;;;;16.40;9.18;;;;;;;-5.06;69.60;98174.22;6153518;23;20002;-88
2021/12/26 06:25:13;;;;;;;15.10;9.20;;;;;;;-5.76;69.28;98056.25;6153598;23;20087;-88
2021/12/26 06:27:39;;;;;;;17.10;9.27;;;;;;;-4.68;68.65;98232.50;6153170;23;20059;-88
2021/12/26 06:30:06;;;;;;;14.27;9.52;;;;;;;-5.33;69.04;98133.03;6153442;23;20446;-88
2021/12/26 06:32:31;;;;;;;14.00;9.00;;;;;;;-5.33;68.87;98133.03;6153273;23;20096;-88
2021/12/26 06:34:57;;;;;;;13.73;8.55;;;;;;;-5.65;69.28;98084.50;6153463;23;20001;-87
2021/12/26 06:37:25;;;;;;;13.50;9.38;;;;;;;-5.50;68.90;98121.00;6178035;23;20096;-88
2021/12/26 06:39:51;;;;;;;12.55;9.23;;;;;;;-5.03;68.88;98207.72;6178053;23;20005;-88
2021/12/26 06:42:16;;;;;;;12.02;8.35;;;;;;;-5.95;69.36;98045.44;6177929;23;20012;-88
2021/12/26 06:44:44;;;;;;;12.82;9.13;;;;;;;-5.79;68.97;98069.59;6129009;23;20345;-87
2021/12/26 06:47:10;;;;;;;15.25;9.80;;;;;;;-4.98;68.74;98205.41;6152986;23;20008;-88
2021/12/26 06:49:36;;;;;;;16.20;9.38;;;;;;;-5.09;68.92;98194.56;6153237;23;20349;-88
2021/12/26 06:52:09;;;;;;;16.42;9.90;;;;;;;-5.68;68.89;98094.41;6153141;23;20001;-88
2021/12/26 06:54:38;;;;;;;14.48;8.82;;;;;;;-5.44;69.43;98125.56;6153167;23;20001;-88
2021/12/26 06:57:04;;;;;;;18.98;9.90;;;;;;;-5.72;69.00;98088.72;6153143;23;20005;-88
2021/12/26 06:59:30;;;;;;;16.00;9.98;;;;;;;-5.58;69.30;98108.84;6153100;23;20005;-88
2021/12/26 07:01:56;;;;;;;18.35;9.65;;;;;;;-5.16;68.79;98171.00;6153146;23;20008;-88
2021/12/26 07:04:24;;;;;;;17.42;10.63;;;;;;;-5.36;68.76;98133.34;6153540;23;20009;-88
2021/12/26 07:06:50;;;;;;;14.52;9.18;;;;;;;-5.80;68.98;98067.97;6153044;23;20059;-88
2021/12/26 07:09:17;;;;;;;16.25;10.27;;;;;;;-5.44;68.56;98120.38;6153093;23;20436;-88
2021/12/26 07:11:46;;;;;;;15.43;9.65;;;;;;;-5.56;68.53;98104.31;6153608;23;20010;-88
2021/12/26 07:14:13;;;;;;;17.08;10.82;;;;;;;-5.75;69.07;98080.47;6153266;23;20001;-87
2021/12/26 07:16:38;;;;;;;17.42;9.25;;;;;;;-5.82;68.58;98082.09;6153304;23;20265;-88
2021/12/26 07:19:06;;;;;;;15.10;9.57;;;;;;;-5.20;68.95;98161.09;6153250;23;20424;-88
2021/12/26 07:21:31;;;;;;;20.85;11.32;;;;;;;-5.66;69.47;98100.25;6130257;23;20014;-88
2021/12/26 07:23:57;;;;;;;18.25;10.73;;;;;;;-5.67;68.76;98099.44;6124638;23;20002;-88
2021/12/26 07:26:25;;;;;;;15.18;10.23;;;;;;;-5.69;69.49;98106.59;6125809;23;20001;-88
2021/12/26 07:28:54;;;;;;;17.73;10.50;;;;;;;-5.49;69.59;98128.66;6125350;23;20009;-88
2021/12/26 07:31:19;;;;;;;18.73;11.68;;;;;;;-4.98;69.44;98226.22;6126144;23;20006;-88
2021/12/26 07:33:45;;;;;;;18.80;10.90;;;;;;;-5.73;68.88;98087.13;6125632;23;20333;-88
2021/12/26 07:36:11;;;;;;;19.60;10.30;;;;;;;-4.88;69.58;98237.28;6126430;23;20001;-88
2021/12/26 07:38:36;;;;;;;18.42;10.90;;;;;;;-5.10;69.63;98205.94;6125292;23;20014;-89
2021/12/26 07:41:01;;;;;;;22.67;11.32;;;;;;;-5.07;69.28;98211.63;6125615;23;20029;-89
2021/12/26 07:43:28;;;;;;;20.55;11.90;;;;;;;-5.69;69.27;98108.38;6125808;23;20168;-89
2021/12/26 07:45:53;;;;;;;20.20;11.70;;;;;;;-5.31;69.04;98176.06;6126578;23;20009;-89
2021/12/26 07:48:19;;;;;;;19.13;10.70;;;;;;;-5.85;69.11;98083.25;6125442;23;20084;-89
2021/12/26 07:50:45;;;;;;;22.60;11.98;;;;;;;-5.21;69.11;98186.28;6125537;23;20009;-89
2021/12/26 07:53:11;;;;;;;17.73;11.13;;;;;;;-5.71;69.44;98103.34;6125417;23;20451;-89
2021/12/26 07:55:45;;;;;;;20.40;11.13;;;;;;;-4.60;69.83;98276.72;6125259;23;20016;-89
2021/12/26 07:58:10;;;;;;;23.27;11.77;;;;;;;-5.80;69.46;98095.72;6101386;23;20093;-89
2021/12/26 08:00:36;;;;;;;18.77;10.88;;;;;;;-5.79;69.29;98087.78;6125416;23;20038;-89
2021/12/26 08:03:02;;;;;;;17.40;10.75;;;;;;;-4.92;69.58;98215.19;6125379;23;20024;-90
2021/12/26 08:05:28;;;;;;;16.65;11.45;;;;;;;-5.68;69.57;98104.81;6125099;23;20010;-89
2021/12/26 08:07:53;;;;;;;19.35;11.13;;;;;;;-5.62;69.78;98101.56;6125352;23;20145;-89
2021/12/26 08:10:23;;;;;;;19.90;11.55;;;;;;;-5.86;69.63;98073.03;6125460;23;20002;-89
2021/12/26 08:12:48;;;;;;;21.17;12.95;;;;;;;-4.77;69.57;98252.53;6125327;23;20001;-90
2021/12/26 08:15:16;;;;;;;21.60;12.45;;;;;;;-5.38;69.67;98153.50;6125246;23;20002;-88
2021/12/26 08:17:41;;;;;;;27.80;14.32;;;;;;;-5.45;69.69;98129.94;6125054;23;20451;-89
2021/12/26 08:20:08;;;;;;;31.60;15.35;;;;;;;-4.91;70.25;98219.38;6130057;23;20073;-89
2021/12/26 08:22:34;;;;;;;28.88;14.93;;;;;;;-5.63;70.19;98095.53;6159444;23;20001;-89
2021/12/26 08:25:00;;;;;;;30.83;15.32;;;;;;;-5.12;70.05;98180.09;6159725;23;20013;-88
2021/12/26 08:27:29;;;;;;;25.85;13.43;;;;;;;-5.56;69.62;98101.69;6159399;23;20001;-89
2021/12/26 08:29:55;;;;;;;26.25;14.07;;;;;;;-5.37;69.81;98145.53;6134541;23;20016;-89
2021/12/26 08:32:20;;;;;;;21.40;13.30;;;;;;;-5.39;70.20;98141.47;6159905;23;20339;-89
2021/12/26 08:34:48;;;;;;;19.55;13.27;;;;;;;-5.35;70.50;98138.38;6159159;23;20005;-89
2021/12/26 08:37:14;;;;;;;24.77;13.77;;;;;;;-5.60;69.34;98099.59;6159662;23;20008;-89
2021/12/26 08:39:42;;;;;;;24.05;13.52;;;;;;;-5.55;69.55;98107.72;6159498;23;20323;-89
2021/12/26 08:42:12;;;;;;;23.10;13.30;;;;;;;-4.52;70.32;98268.09;6159876;23;20513;-89
2021/12/26 08:44:38;;;;;;;23.05;12.73;;;;;;;-4.26;70.17;98316.31;6159583;23;20008;-89
2021/12/26 08:47:05;;;;;;;22.55;12.73;;;;;;;-4.64;70.67;98237.22;6159556;23;20012;-89
2021/12/26 08:49:31;;;;;;;21.80;13.00;;;;;;;-5.54;70.39;98088.53;6159325;23;20008;-89
2021/12/26 08:52:00;;;;;;;20.67;11.77;;;;;;;-4.96;70.26;98194.88;6159219;23;20036;-89
2021/12/26 08:54:28;;;;;;;23.15;12.20;;;;;;;-5.60;70.06;98084.00;6159753;23;20012;-89
2021/12/26 08:56:56;;;;;;;20.45;12.63;;;;;;;-5.49;70.39;98114.84;6159580;23;20432;-89
2021/12/26 08:59:24;;;;;;;24.95;13.63;;;;;;;-4.18;71.03;98325.91;6159341;23;20000;-89
2021/12/26 09:01:50;;;;;;;20.75;13.63;;;;;;;-5.46;70.66;98115.31;6184067;23;20012;-89
2021/12/26 09:04:16;;;;;;;30.50;14.98;;;;;;;-4.89;70.31;98177.63;6159497;23;20088;-89
2021/12/26 09:06:44;;;;;;;23.67;13.68;;;;;;;-4.83;71.05;98187.34;6159541;23;20026;-89
2021/12/26 09:09:12;;;;;;;21.42;12.35;;;;;;;-5.55;71.26;98084.31;6159063;23;20028;-89
2021/12/26 09:11:40;;;;;;;23.00;13.07;;;;;;;-4.10;71.05;98305.03;6184340;23;20017;-89
2021/12/26 09:14:06;;;;;;;22.38;12.93;;;;;;;-4.09;71.11;98301.47;6158974;23;20024;-89
2021/12/26 09:16:33;;;;;;;24.95;13.95;;;;;;;-5.33;71.14;98096.63;6158958;23;20454;-89
2021/12/26 09:19:05;;;;;;;22.27;13.60;;;;;;;-4.90;71.31;98175.97;6158886;23;20402;-89
2021/12/26 09:21:31;;;;;;;20.27;13.50;;;;;;;-5.25;70.60;98114.78;6159185;23;20009;-89
2021/12/26 09:24:04;;;;;;;25.23;12.88;;;;;;;-5.32;71.42;98119.84;6157475;23;20005;-89
2021/12/26 09:26:30;;;;;;;21.45;12.60;;;;;;;-4.11;70.94;98293.81;6159190;23;20055;-89
2021/12/26 09:29:04;;;;;;;20.80;13.27;;;;;;;-3.99;71.04;98309.88;6134149;23;20429;-89
2021/12/26 09:31:32;;;;;;;21.02;13.35;;;;;;;-4.98;71.22;98157.78;6159392;23;20015;-89
2021/12/26 09:33:57;;;;;;;20.85;13.05;;;;;;;-5.39;71.17;98090.28;6183861;23;20001;-89
2021/12/26 09:36:23;;;;;;;23.23;13.20;;;;;;;-4.73;71.32;98195.75;6158769;23;20009;-89
2021/12/26 09:38:51;;;;;;;21.65;12.65;;;;;;;-5.22;71.31;98100.66;6158709;23;20009;-89
2021/12/26 09:41:17;;;;;;;20.85;13.32;;;;;;;-5.22;71.02;98113.66;6159166;23;20005;-89
2021/12/26 09:43:42;;;;;;;20.77;13.82;;;;;;;-4.67;71.56;98193.28;6158885;23;20008;-91
2021/12/26 09:46:08;;;;;;;22.98;13.00;;;;;;;-3.85;71.94;98324.81;6185114;23;20005;-89
2021/12/26 09:48:33;;;;;;;23.10;13.88;;;;;;;-5.23;71.86;98086.81;6134333;23;20013;-89
2021/12/26 09:51:00;;;;;;;24.92;15.05;;;;;;;-4.32;71.79;98219.81;6158575;23;20005;-89
2021/12/26 09:53:25;;;;;;;24.10;13.20;;;;;;;-5.23;72.05;98076.44;6159051;23;20001;-89
2021/12/26 09:55:53;;;;;;;22.73;14.07;;;;;;;-4.53;72.17;98193.56;6158735;23;20317;-89
2021/12/26 09:58:20;;;;;;;20.38;12.75;;;;;;;-4.41;71.67;98197.44;6158466;23;20012;-89
2021/12/26 10:00:49;;;;;;;26.83;15.88;;;;;;;-4.23;72.77;98217.00;6157716;23;20005;-89
2021/12/26 10:03:24;;;;;;;26.08;14.55;;;;;;;-4.70;71.99;98143.38;6158856;23;20088;-89
2021/12/26 10:06:02;;;;;;;30.33;15.77;;;;;;;-4.11;72.28;98226.09;6159257;23;20016;-89
2021/12/26 10:08:33;;;;;;;27.60;15.98;;;;;;;-4.43;72.40;98173.34;6183538;23;20005;-88
2021/12/26 10:11:12;;;;;;;26.38;16.45;;;;;;;-4.37;72.50;98180.47;6158579;23;20044;-88
2021/12/26 10:13:49;;;;;;;28.35;16.50;;;;;;;-4.31;72.60;98192.81;6159106;23;19997;-89
2021/12/26 10:16:17;;;;;;;27.55;15.93;;;;;;;-3.86;73.45;98264.03;6158845;23;20109;-89
2021/12/26 10:18:43;;;;;;;24.42;16.08;;;;;;;-3.56;72.96;98303.31;6158427;23;20004;-89
2021/12/26 10:21:29;;;;;;;25.70;15.45;;;;;;;-4.21;73.12;98172.56;6158474;23;20012;-89
2021/12/26 10:23:59;;;;;;;23.90;14.40;;;;;;;-4.20;73.45;98174.19;6158483;23;20458;-89
2021/12/26 10:26:30;;;;;;;25.27;16.15;;;;;;;-4.72;72.90;98081.06;6158454;23;20008;-90
2021/12/26 10:29:10;;;;;;;24.15;15.68;;;;;;;-3.70;73.43;98234.47;6157990;23;20005;-89
2021/12/26 10:31:41;;;;;;;26.50;15.07;;;;;;;-3.37;73.24;98295.84;6158826;23;20043;-89
2021/12/26 10:34:13;;;;;;;26.40;15.07;;;;;;;-4.70;73.86;98054.88;6158563;23;20001;-89
2021/12/26 10:36:48;;;;;;;30.77;16.10;;;;;;;-4.53;73.37;98073.81;6158793;23;20340;-89
2021/12/26 10:39:17;;;;;;;25.05;15.57;;;;;;;-4.59;73.50;98067.50;6158534;23;20032;-89
2021/12/26 10:41:51;;;;;;;26.23;14.90;;;;;;;-3.26;73.73;98264.13;6158197;23;20457;-89
2021/12/26 10:44:29;;;;;;;24.65;15.55;;;;;;;-3.96;74.40;98150.59;6158511;23;20009;-89
2021/12/26 10:47:05;;;;;;;24.50;15.10;;;;;;;-4.08;74.70;98120.69;6159320;23;20095;-89
2021/12/26 10:49:51;;;;;;;27.40;14.02;;;;;;;-3.86;74.06;98153.75;6135220;23;20016;-90
2021/12/26 10:52:26;;;;;;;24.73;15.73;;;;;;;-3.62;74.61;98171.81;6158473;23;20005;-90
2021/12/26 10:55:04;;;;;;;26.87;15.57;;;;;;;-3.73;74.31;98146.16;6158360;23;20001;-89
2021/12/26 10:57:39;;;;;;;23.55;14.18;;;;;;;-3.07;74.20;98241.94;6158483;23;20001;-89
2021/12/26 11:00:10;;;;;;;29.48;15.30;;;;;;;-4.28;74.73;98057.03;6158357;23;20139;-90
2021/12/26 11:02:37;;;;;;;29.38;15.40;;;;;;;-4.21;74.29;98045.72;6133590;23;20009;-89
2021/12/26 11:05:14;;;;;;;25.65;14.70;;;;;;;-2.98;75.15;98234.84;6158199;23;20029;-90
2021/12/26 11:07:49;;;;;;;26.45;15.50;;;;;;;-3.53;75.04;98152.50;6158400;23;20087;-90
2021/12/26 11:10:20;;;;;;;;;;;;;;;-2.97;74.81;98242.47;6158587;23;20005;-88
2021/12/26 11:12:48;;;;;;;25.67;14.10;;;;;;;-3.03;75.53;98251.84;6182788;23;19979;-89
2021/12/26 11:15:16;;;;;;;26.98;14.70;;;;;;;-3.46;74.83;98171.69;6158452;23;20375;-89
2021/12/26 11:17:49;;;;;;;24.23;15.07;;;;;;;-3.76;75.50;98114.44;6158257;23;20056;-89
2021/12/26 11:20:25;;;;;;;22.75;14.93;;;;;;;-3.36;74.96;98168.81;6158237;23;20063;-89
2021/12/26 11:22:51;;;;;;;26.77;15.63;;;;;;;-3.74;75.74;98107.22;6159121;23;20084;-90
2021/12/26 11:25:17;;;;;;;28.17;16.83;;;;;;;-3.07;75.08;98211.44;6158662;23;20001;-89
2021/12/26 11:27:43;;;;;;;28.08;16.95;;;;;;;-2.76;75.30;98266.09;6158163;23;20014;-89
2021/12/26 11:30:10;;;;;;;23.85;15.75;;;;;;;-3.66;75.83;98117.59;6158085;23;20036;-89
2021/12/26 11:32:36;;;;;;;24.38;15.95;;;;;;;-2.71;75.39;98268.97;6158064;23;20455;-89
2021/12/26 11:35:03;;;;;;;30.40;16.35;;;;;;;-3.88;75.37;98074.94;6158487;23;20005;-90
2021/12/26 11:37:29;;;;;;;28.55;15.30;;;;;;;-3.59;75.90;98118.50;6158484;23;20160;-89
2021/12/26 11:39:57;;;;;;;26.05;16.08;;;;;;;-2.64;75.88;98259.44;6158615;23;20087;-89
2021/12/26 11:43:03;;;;;;;27.15;16.80;;;;;;;-2.97;76.04;98189.47;6158252;23;20012;-89
2021/12/26 11:45:59;;;;;;;26.52;15.10;;;;;;;-2.62;75.89;98236.56;6157631;23;20099;-89
2021/12/26 11:48:48;;;;;;;26.70;15.40;;;;;;;-2.85;76.49;98198.47;6157918;23;20005;-89
2021/12/26 11:51:32;;;;;;;26.50;15.90;;;;;;;-2.61;76.23;98237.38;6158313;23;20024;-90
2021/12/26 11:54:30;;;;;;;23.13;14.73;;;;;;;-2.59;75.98;98240.63;6158147;23;20013;-89
2021/12/26 11:57:10;;;;;;;27.45;15.80;;;;;;;-2.83;76.44;98183.44;6157874;23;20016;-89
2021/12/26 11:59:35;;;;;;;24.70;15.93;;;;;;;-2.75;76.30;98188.59;6157784;23;20005;-89
2021/12/26 12:02:01;;;;;;;25.33;14.25;;;;;;;-3.34;76.29;98083.38;6157917;23;20001;-89
2021/12/26 12:04:26;;;;;;;27.80;17.25;;;;;;;-2.71;76.19;98177.56;6158049;23;20005;-89
2021/12/26 12:06:55;;;;;;;28.40;15.68;;;;;;;-3.69;76.19;98019.66;6182753;23;20009;-90
2021/12/26 12:09:39;;;;;;;27.65;16.23;;;;;;;-3.69;75.72;98017.06;6182797;23;20080;-89
2021/12/26 12:12:14;;;;;;;28.15;16.65;;;;;;;-3.52;76.02;98034.19;6159444;23;20001;-89
2021/12/26 12:14:55;;;;;;;25.20;15.43;;;;;;;-3.21;76.14;98097.41;6184459;23;20344;-89
2021/12/26 12:17:32;;;;;;;29.73;17.90;;;;;;;-3.14;76.22;98085.25;6159805;23;20000;-89
2021/12/26 12:20:07;;;;;;;31.58;17.23;;;;;;;-2.96;75.87;98113.59;6159512;23;20478;-89
2021/12/26 12:22:32;;;;;;;27.67;15.05;;;;;;;-3.31;76.34;98051.69;6159449;23;20009;-90
2021/12/26 12:25:38;;;;;;;27.95;15.90;;;;;;;-2.39;76.76;98202.50;6110515;23;20020;-89
2021/12/26 12:28:07;;;;;;;27.58;15.48;;;;;;;-2.86;77.00;98129.00;6159446;23;20005;-89
2021/12/26 12:30:32;;;;;;;28.45;16.73;;;;;;;-3.12;76.62;98072.84;6159354;23;20052;-89
2021/12/26 12:33:22;;;;;;;29.80;16.33;;;;;;;-2.35;77.21;98186.28;6159532;23;20009;-89
2021/12/26 12:35:51;;;;;;;27.73;16.65;;;;;;;-2.33;76.39;98199.16;6159591;23;20400;-89
2021/12/26 12:38:23;;;;;;;29.33;15.73;;;;;;;-2.96;76.68;98094.50;6159051;23;20435;-89
2021/12/26 12:40:48;;;;;;;27.80;15.60;;;;;;;-3.22;76.54;98048.81;6159190;23;20012;-89
2021/12/26 12:43:20;;;;;;;32.33;16.58;;;;;;;-2.29;76.99;98210.88;6159170;23;20008;-89
2021/12/26 12:45:59;;;;;;;28.90;16.20;;;;;;;-2.27;76.31;98201.84;6159321;23;20009;-89
2021/12/26 12:48:32;;;;;;;32.15;16.13;;;;;;;-2.93;76.21;98094.16;6159553;23;20009;-89
2021/12/26 12:51:19;;;;;;;28.17;15.75;;;;;;;-2.23;76.52;98209.34;6159727;23;20001;-90
2021/12/26 12:53:48;;;;;;;25.33;14.95;;;;;;;-2.61;76.89;98132.91;6159605;23;19997;-89
2021/12/26 12:56:33;;;;;;;25.58;15.60;;;;;;;-2.50;76.89;98146.31;6134581;23;20008;-89